Time;durP1;ratioP1;P1;durP2;ratioP2;P2;SDS_P1;SDS_P2;PMS_P1;PMS_P2;Temp;Humidity;BMP_temperature;BMP_pressure;BME280_temperature;BME280_humidity;BME280_pressure;Samples;Min_cycle;Max_cycle;Signal;HPM_P1;HPM_P2
2021/04/25 00:02:23;;;;;;;6.20;5.33;;;;;;;16.05;58.77;102282.88;1778804;80;21144;-48
2021/04/25 00:04:51;;;;;;;5.87;4.37;;;;;;;16.06;58.75;102279.38;1778923;80;21326;-48
2021/04/25 00:07:19;;;;;;;7.72;5.30;;;;;;;16.06;58.87;102282.00;1741718;82;21282;-48
2021/04/25 00:09:47;;;;;;;7.42;5.17;;;;;;;16.06;58.93;102276.75;1707839;84;21331;-48
2021/04/25 00:12:15;;;;;;;5.42;4.90;;;;;;;16.08;59.06;102271.45;1778966;81;21199;-48
2021/04/25 00:14:44;;;;;;;5.78;5.17;;;;;;;16.09;59.11;102267.48;1758909;81;21125;-49
2021/04/25 00:17:11;;;;;;;6.62;5.50;;;;;;;16.09;59.14;102267.48;1778537;81;21133;-48
2021/04/25 00:19:40;;;;;;;6.22;5.15;;;;;;;16.09;59.18;102266.17;1778946;81;21165;-48
2021/04/25 00:22:08;;;;;;;6.67;5.12;;;;;;;16.09;59.23;102264.02;1778882;81;21545;-49
2021/04/25 00:24:36;;;;;;;8.98;5.83;;;;;;;16.10;59.34;102265.28;1778872;81;21169;-48
2021/04/25 00:27:05;;;;;;;7.00;6.25;;;;;;;16.11;59.38;102259.16;1778985;80;21572;-48
2021/04/25 00:29:33;;;;;;;6.85;6.20;;;;;;;16.12;59.30;102262.18;1778728;81;21109;-48
2021/04/25 00:32:01;;;;;;;6.08;5.40;;;;;;;16.13;59.19;102262.61;1778777;81;21450;-48
2021/04/25 00:34:29;;;;;;;7.45;5.80;;;;;;;16.13;59.11;102266.55;1778649;81;21647;-48
2021/04/25 00:36:58;;;;;;;6.25;5.22;;;;;;;16.12;59.20;102263.50;1778473;81;21153;-49
2021/04/25 00:39:26;;;;;;;6.05;5.40;;;;;;;16.11;59.29;102264.41;1729192;82;21161;-49
2021/04/25 00:41:54;;;;;;;6.53;5.55;;;;;;;16.12;59.38;102258.24;1724883;82;21617;-48
2021/04/25 00:44:22;;;;;;;6.67;5.35;;;;;;;16.13;59.39;102257.36;1778438;81;21203;-48
2021/04/25 00:46:50;;;;;;;8.53;5.37;;;;;;;16.15;59.31;102250.31;1778554;81;21125;-49
2021/04/25 00:49:20;;;;;;;6.22;5.62;;;;;;;16.15;59.39;102250.31;1779157;81;21353;-48
2021/04/25 00:51:50;;;;;;;6.00;5.30;;;;;;;16.15;59.47;102260.81;1741812;82;21177;-48
2021/04/25 00:54:18;;;;;;;8.10;5.00;;;;;;;16.17;59.42;102262.96;1757316;81;21157;-49
2021/04/25 00:56:46;;;;;;;6.12;5.53;;;;;;;16.17;59.30;102257.71;1778789;81;21136;-48
2021/04/25 00:59:15;;;;;;;5.20;4.67;;;;;;;16.17;59.29;102259.02;1778756;81;21578;-49
2021/04/25 01:01:43;;;;;;;5.80;5.28;;;;;;;16.17;59.26;102251.59;1778682;80;21172;-48
2021/04/25 01:04:11;;;;;;;5.50;5.00;;;;;;;16.16;59.36;102249.40;1778901;80;21157;-48
2021/04/25 01:06:38;;;;;;;7.05;5.20;;;;;;;16.16;59.42;102249.84;1777766;81;21164;-48
2021/04/25 01:09:06;;;;;;;8.20;5.28;;;;;;;16.17;59.38;102252.90;1778706;80;21161;-48
2021/04/25 01:11:35;;;;;;;7.17;6.08;;;;;;;16.18;59.30;102253.30;1778707;80;21149;-48
2021/04/25 01:14:03;;;;;;;6.00;5.05;;;;;;;16.18;59.21;102251.98;1778701;81;21105;-48
2021/04/25 01:16:32;;;;;;;5.22;4.40;;;;;;;16.17;59.14;102248.52;1778621;80;21140;-49
2021/04/25 01:19:00;;;;;;;5.15;4.65;;;;;;;16.18;59.22;102250.23;1778876;81;21153;-48
2021/04/25 01:21:28;;;;;;;6.42;5.45;;;;;;;16.17;59.25;102251.14;1779069;80;21176;-49
2021/04/25 01:23:57;;;;;;;5.85;5.28;;;;;;;16.16;59.27;102257.28;1778491;81;21148;-48
2021/04/25 01:26:25;;;;;;;7.65;5.78;;;;;;;16.18;59.24;102251.98;1778750;81;21282;-49
2021/04/25 01:28:54;;;;;;;6.72;5.35;;;;;;;16.17;59.19;102248.52;1722923;82;21168;-49
2021/04/25 01:31:22;;;;;;;6.25;5.00;;;;;;;16.18;59.13;102250.23;1778647;80;21298;-49
2021/04/25 01:33:50;;;;;;;6.85;5.30;;;;;;;16.17;59.13;102243.27;1778813;81;21177;-48
2021/04/25 01:36:19;;;;;;;7.28;5.40;;;;;;;16.16;59.21;102249.40;1778740;81;21161;-49
2021/04/25 01:38:47;;;;;;;6.05;4.90;;;;;;;16.17;59.21;102248.52;1778830;80;21149;-49
2021/04/25 01:41:15;;;;;;;8.45;6.10;;;;;;;16.18;59.17;102248.05;1777549;80;21152;-48
2021/04/25 01:43:46;;;;;;;6.90;5.40;;;;;;;16.17;59.21;102248.52;1787062;80;21569;-49
2021/04/25 01:46:15;;;;;;;7.42;4.72;;;;;;;16.17;59.21;102251.14;1786994;80;21341;-49
2021/04/25 01:48:44;;;;;;;5.40;4.90;;;;;;;16.15;59.21;102251.63;1786990;80;21140;-48
2021/04/25 01:51:12;;;;;;;6.37;5.42;;;;;;;16.15;59.29;102249.44;1786945;80;21144;-49
2021/04/25 01:53:40;;;;;;;6.33;5.03;;;;;;;16.15;59.38;102250.31;1786971;80;21293;-49
2021/04/25 01:56:08;;;;;;;7.33;5.30;;;;;;;16.16;59.35;102246.77;1787097;80;21168;-48
2021/04/25 01:58:36;;;;;;;8.85;5.65;;;;;;;16.16;59.29;102249.40;1787132;80;21136;-48
2021/04/25 02:01:04;;;;;;;7.33;5.20;;;;;;;16.15;59.26;102243.75;1787551;80;21549;-49
2021/04/25 02:03:33;;;;;;;5.90;5.05;;;;;;;16.14;59.41;102245.94;1786852;80;21172;-49
2021/04/25 02:06:02;;;;;;;5.80;5.00;;;;;;;16.14;59.53;102244.63;1786986;80;21129;-48
2021/04/25 02:08:30;;;;;;;7.03;5.50;;;;;;;16.15;59.52;102243.75;1787053;80;21148;-49
2021/04/25 02:10:58;;;;;;;5.58;4.97;;;;;;;16.16;59.49;102233.64;1786873;80;21290;-49
2021/04/25 02:13:26;;;;;;;5.08;4.60;;;;;;;16.18;59.37;102239.73;1787257;80;21612;-48
2021/04/25 02:15:54;;;;;;;6.37;5.15;;;;;;;16.19;59.35;102243.22;1787105;80;21140;-49
2021/04/25 02:18:22;;;;;;;6.47;5.25;;;;;;;16.19;59.40;102244.09;1787112;80;21212;-48
2021/04/25 02:20:50;;;;;;;6.75;4.80;;;;;;;16.19;59.42;102238.84;1785938;80;21165;-48
2021/04/25 02:23:18;;;;;;;9.08;5.85;;;;;;;16.21;59.29;102246.69;1787062;80;21580;-49
2021/04/25 02:25:45;;;;;;;6.45;4.95;;;;;;;16.21;59.11;102252.81;1787189;80;21600;-47
2021/04/25 02:28:13;;;;;;;5.60;4.67;;;;;;;16.20;59.10;102251.06;1786772;80;21164;-49
2021/04/25 02:30:42;;;;;;;5.60;4.70;;;;;;;16.20;59.13;102252.81;1787186;80;21287;-48
2021/04/25 02:33:10;;;;;;;5.90;5.10;;;;;;;16.19;59.12;102253.73;1783740;80;21168;-49
2021/04/25 02:35:38;;;;;;;6.58;4.97;;;;;;;16.14;59.37;102244.63;1787115;80;21152;-49
2021/04/25 02:38:05;;;;;;;6.67;5.22;;;;;;;16.16;59.32;102245.46;1787155;80;21148;-48
2021/04/25 02:40:35;;;;;;;5.92;4.78;;;;;;;16.15;59.30;102246.38;1786944;80;21153;-48
2021/04/25 02:43:04;;;;;;;6.30;5.25;;;;;;;16.16;59.44;102241.52;1766947;80;21225;-49
2021/04/25 02:45:32;;;;;;;6.92;5.22;;;;;;;16.15;59.50;102243.75;1762948;81;21168;-49
2021/04/25 02:48:05;;;;;;;9.05;5.30;;;;;;;16.16;59.65;102238.89;1762956;81;21566;-48
2021/04/25 02:50:38;;;;;;;6.35;5.75;;;;;;;16.17;59.64;102234.52;1712312;83;21261;-49
2021/04/25 02:53:12;;;;;;;6.87;5.58;;;;;;;16.20;59.59;102232.67;1819726;77;23113;-49
2021/04/25 02:55:40;;;;;;;8.43;6.50;;;;;;;16.13;59.71;102228.47;1825946;78;21180;-50
2021/04/25 02:58:09;;;;;;;6.72;6.03;;;;;;;16.14;59.71;102232.81;1790491;80;21172;-48
2021/04/25 03:00:37;;;;;;;6.60;5.90;;;;;;;16.13;59.76;102237.66;1751807;81;21120;-50
2021/04/25 03:03:05;;;;;;;5.90;5.25;;;;;;;16.12;59.82;102233.73;1761854;81;21167;-50
2021/04/25 03:05:34;;;;;;;9.00;5.30;;;;;;;16.10;59.94;102236.41;1746673;81;21346;-50
2021/04/25 03:08:03;;;;;;;8.08;5.35;;;;;;;16.08;60.10;102240.82;1760944;81;21172;-50
2021/04/25 03:10:31;;;;;;;5.80;5.15;;;;;;;16.06;60.31;102243.93;1768073;81;21171;-49
2021/04/25 03:13:01;;;;;;;9.28;5.87;;;;;;;16.07;60.41;102237.77;1745058;80;21132;-50
2021/04/25 03:15:28;;;;;;;6.70;5.60;;;;;;;16.07;60.53;102236.45;1756488;81;21173;-50
2021/04/25 03:17:56;;;;;;;7.55;5.83;;;;;;;16.07;60.56;102237.77;1747142;81;21140;-49
2021/04/25 03:20:24;;;;;;;10.45;6.47;;;;;;;16.07;60.65;102236.45;1748707;81;21293;-50
2021/04/25 03:22:53;;;;;;;7.00;5.72;;;;;;;16.07;60.76;102237.77;1760067;81;21147;-50
2021/04/25 03:25:21;;;;;;;7.28;6.30;;;;;;;16.09;60.85;102235.12;1764030;81;21175;-50
2021/04/25 03:27:49;;;;;;;7.33;5.90;;;;;;;16.10;60.90;102236.84;1744396;81;21568;-49
2021/04/25 03:30:19;;;;;;;7.35;5.45;;;;;;;16.10;60.82;102237.72;1756813;81;21132;-49
2021/04/25 03:32:47;;;;;;;6.50;5.75;;;;;;;16.13;60.92;102240.73;1745123;81;21152;-50
2021/04/25 03:35:17;;;;;;;7.75;6.40;;;;;;;16.12;60.93;102245.11;1761278;81;21179;-49
2021/04/25 03:37:45;;;;;;;7.85;7.05;;;;;;;16.14;60.93;102247.25;1745010;80;21287;-50
2021/04/25 03:40:16;;;;;;;7.12;6.20;;;;;;;16.13;60.94;102242.92;1754875;81;21298;-50
2021/04/25 03:42:44;;;;;;;9.13;6.80;;;;;;;16.14;60.85;102248.57;1745054;80;21608;-50
2021/04/25 03:45:14;;;;;;;8.65;6.67;;;;;;;16.14;60.92;102252.95;1762662;81;21110;-49
2021/04/25 03:47:47;;;;;;;9.40;6.85;;;;;;;16.15;60.95;102252.06;1757810;81;21140;-49
2021/04/25 03:50:18;;;;;;;7.70;6.90;;;;;;;16.16;60.96;102249.40;1757539;81;21156;-49
2021/04/25 03:52:46;;;;;;;7.23;6.53;;;;;;;16.16;60.94;102252.02;1754972;81;21167;-50
2021/04/25 03:55:16;;;;;;;8.75;6.40;;;;;;;16.17;60.87;102253.77;1751003;82;21125;-49
2021/04/25 03:57:44;;;;;;;7.15;6.47;;;;;;;16.16;60.93;102250.72;1754723;82;21144;-50
2021/04/25 04:00:14;;;;;;;7.62;6.78;;;;;;;16.17;60.90;102255.09;1741589;82;21585;-49
2021/04/25 04:02:42;;;;;;;8.75;6.90;;;;;;;16.17;60.95;102255.09;1737091;82;21290;-49
2021/04/25 04:05:11;;;;;;;8.78;6.70;;;;;;;16.18;60.88;102260.73;1734065;80;21133;-50
2021/04/25 04:07:39;;;;;;;8.80;6.30;;;;;;;16.19;60.84;102257.67;1749433;82;21114;-50
2021/04/25 04:10:08;;;;;;;9.08;5.97;;;;;;;16.17;60.81;102253.77;1735227;80;21159;-50
2021/04/25 04:12:37;;;;;;;6.25;5.65;;;;;;;16.16;60.86;102248.09;1747464;82;21560;-50
2021/04/25 04:15:07;;;;;;;7.42;5.75;;;;;;;16.16;60.82;102253.34;1754787;82;21195;-49
2021/04/25 04:17:35;;;;;;;7.22;5.53;;;;;;;16.14;60.87;102255.13;1741001;82;21177;-50
2021/04/25 04:20:05;;;;;;;8.35;6.10;;;;;;;16.13;60.92;102254.73;1749550;82;21156;-51
2021/04/25 04:22:33;;;;;;;10.05;5.97;;;;;;;16.12;60.99;102252.98;1749103;82;21557;-50
2021/04/25 04:25:02;;;;;;;7.60;6.72;;;;;;;16.10;61.13;102253.47;1809478;79;21241;-49
2021/04/25 04:27:29;;;;;;;8.30;6.90;;;;;;;16.11;61.10;102250.41;1766549;80;21136;-50
2021/04/25 04:29:58;;;;;;;7.35;6.15;;;;;;;16.09;61.17;102249.57;1734069;81;21545;-50
2021/04/25 04:32:26;;;;;;;8.00;6.12;;;;;;;16.09;61.09;102249.09;1804888;79;21133;-49
2021/04/25 04:34:56;;;;;;;7.95;6.20;;;;;;;16.09;61.10;102250.41;1801740;79;21148;-49
2021/04/25 04:37:24;;;;;;;7.00;6.30;;;;;;;16.07;61.13;102253.52;1764894;80;21117;-50
2021/04/25 04:39:52;;;;;;;7.55;6.40;;;;;;;16.07;61.28;102253.99;1804944;79;21137;-51
2021/04/25 04:42:20;;;;;;;7.85;5.58;;;;;;;16.06;61.10;102250.49;1805334;79;21578;-50
2021/04/25 04:44:48;;;;;;;8.00;5.42;;;;;;;16.07;61.07;102256.62;1813290;79;21137;-50
2021/04/25 04:47:15;;;;;;;6.28;5.62;;;;;;;16.06;61.14;102261.00;1773651;80;21117;-49
2021/04/25 04:49:44;;;;;;;6.80;6.12;;;;;;;16.05;61.02;102264.50;1756047;82;21168;-50
2021/04/25 04:52:12;;;;;;;6.87;6.28;;;;;;;16.05;61.04;102259.72;1736002;80;21160;-50
2021/04/25 04:54:40;;;;;;;7.45;5.83;;;;;;;16.06;61.06;102266.25;1742825;82;21169;-49
2021/04/25 04:57:08;;;;;;;10.60;6.35;;;;;;;16.06;60.94;102268.88;1754377;82;21172;-50
2021/04/25 04:59:36;;;;;;;7.40;6.12;;;;;;;16.06;61.07;102266.25;1747465;82;21231;-49
2021/04/25 05:02:04;;;;;;;13.38;7.92;;;;;;;16.05;61.05;102268.44;1747716;82;21132;-49
2021/04/25 05:04:32;;;;;;;8.53;6.75;;;;;;;16.06;61.17;102268.00;1733950;80;21159;-49
2021/04/25 05:07:00;;;;;;;7.33;6.65;;;;;;;16.07;61.14;102268.44;1740422;82;21132;-49
2021/04/25 05:09:29;;;;;;;8.08;6.50;;;;;;;16.07;61.14;102275.84;1734337;80;21145;-49
2021/04/25 05:11:57;;;;;;;9.33;5.90;;;;;;;16.08;61.12;102272.33;1741001;82;21315;-49
2021/04/25 05:14:25;;;;;;;8.03;6.85;;;;;;;16.09;61.09;102274.05;1734747;80;21596;-50
2021/04/25 05:16:54;;;;;;;8.83;7.58;;;;;;;16.10;61.10;102277.11;1738817;82;21310;-51
2021/04/25 05:19:23;;;;;;;7.08;6.37;;;;;;;16.04;61.20;102278.55;1739580;82;21290;-49
2021/04/25 05:21:50;;;;;;;7.83;6.97;;;;;;;16.05;61.26;102275.00;1741819;82;22238;-48
2021/04/25 05:24:19;;;;;;;9.78;7.30;;;;;;;16.07;61.35;102274.52;1744485;80;21152;-49
2021/04/25 05:26:47;;;;;;;8.13;7.33;;;;;;;16.09;61.35;102275.36;1743930;82;21291;-48
2021/04/25 05:29:14;;;;;;;9.35;7.28;;;;;;;16.10;61.31;102274.48;1747267;82;21217;-48
2021/04/25 05:31:44;;;;;;;8.80;6.95;;;;;;;16.12;61.28;102269.19;1735713;80;21625;-49
2021/04/25 05:34:12;;;;;;;7.75;6.95;;;;;;;16.12;61.22;102274.00;1749489;82;21156;-49
2021/04/25 05:36:40;;;;;;;8.23;6.70;;;;;;;16.14;61.18;102269.58;1730592;82;21354;-48
2021/04/25 05:39:07;;;;;;;9.53;7.58;;;;;;;16.15;61.28;102270.01;1750485;82;21319;-49
2021/04/25 05:41:37;;;;;;;7.87;7.17;;;;;;;16.17;61.33;102266.91;1735018;80;21148;-48
2021/04/25 05:44:06;;;;;;;7.33;6.62;;;;;;;16.20;61.33;102268.58;1739835;82;21590;-50
2021/04/25 05:46:34;;;;;;;7.95;6.25;;;;;;;16.16;61.25;102266.47;1732369;82;21172;-49
2021/04/25 05:49:04;;;;;;;7.05;6.35;;;;;;;16.21;61.19;102264.63;1747223;82;21160;-49
2021/04/25 05:51:32;;;;;;;8.68;6.83;;;;;;;16.17;61.40;102261.66;1754351;82;21160;-49
2021/04/25 05:54:00;;;;;;;7.10;6.40;;;;;;;16.18;61.38;102258.55;1744308;81;21216;-49
2021/04/25 05:56:28;;;;;;;8.58;6.65;;;;;;;16.29;61.00;102250.87;1775977;80;21130;-48
2021/04/25 05:58:56;;;;;;;6.90;6.12;;;;;;;16.34;60.85;102252.54;1765942;80;21168;-47
2021/04/25 06:01:24;;;;;;;9.23;6.10;;;;;;;16.36;60.79;102248.12;1754756;81;21139;-48
2021/04/25 06:03:53;;;;;;;8.65;6.25;;;;;;;16.39;60.83;102251.97;1733550;82;21619;-49
2021/04/25 06:06:23;;;;;;;8.23;6.28;;;;;;;16.41;60.67;102251.48;1762144;80;21140;-49
2021/04/25 06:08:53;;;;;;;7.60;6.65;;;;;;;16.42;60.63;102253.23;1757010;81;21536;-48
2021/04/25 06:11:21;;;;;;;7.55;5.47;;;;;;;16.44;60.71;102254.06;1734352;82;21190;-48
2021/04/25 06:13:50;;;;;;;9.75;6.22;;;;;;;16.45;60.75;102258.41;1770004;80;21596;-48
2021/04/25 06:16:18;;;;;;;7.30;6.55;;;;;;;16.46;60.75;102266.28;1753209;81;21188;-49
2021/04/25 06:18:46;;;;;;;6.97;6.22;;;;;;;16.48;60.57;102257.03;1734029;82;21302;-48
2021/04/25 06:21:14;;;;;;;10.20;6.58;;;;;;;16.50;60.27;102255.27;1768507;80;21184;-49
2021/04/25 06:23:43;;;;;;;6.55;5.65;;;;;;;16.50;59.89;102252.64;1757780;81;21171;-49
2021/04/25 06:26:11;;;;;;;8.03;6.17;;;;;;;16.48;59.78;102253.97;1737076;82;21148;-48
2021/04/25 06:28:39;;;;;;;6.62;5.33;;;;;;;16.50;59.70;102257.90;1775700;80;21549;-49
2021/04/25 06:31:07;;;;;;;8.35;5.12;;;;;;;16.50;59.80;102261.84;1754645;81;21195;-49
2021/04/25 06:33:35;;;;;;;7.25;5.17;;;;;;;16.49;59.06;102260.06;1734684;82;21165;-49
2021/04/25 06:36:05;;;;;;;8.08;5.10;;;;;;;16.50;58.06;102268.41;1768748;80;21588;-49
2021/04/25 06:38:32;;;;;;;7.05;5.17;;;;;;;16.46;57.48;102264.09;1757667;81;21576;-49
2021/04/25 06:41:00;;;;;;;4.87;4.17;;;;;;;16.43;57.18;102270.71;1737102;82;21120;-49
2021/04/25 06:43:30;;;;;;;6.05;4.45;;;;;;;16.37;56.96;102267.78;1767949;80;21290;-49
2021/04/25 06:45:59;;;;;;;6.30;4.00;;;;;;;16.34;56.60;102269.17;1757795;81;21160;-49
2021/04/25 06:48:26;;;;;;;6.10;4.50;;;;;;;16.30;56.23;102270.98;1739493;82;21207;-49
2021/04/25 06:50:55;;;;;;;6.00;4.28;;;;;;;16.30;55.81;102271.42;1768172;80;21156;-48
2021/04/25 06:53:22;;;;;;;4.83;4.35;;;;;;;16.28;55.32;102279.34;1756506;81;21200;-48
2021/04/25 06:55:52;;;;;;;5.75;5.10;;;;;;;16.25;55.07;102278.11;1734237;80;21628;-49
2021/04/25 06:58:20;;;;;;;8.58;4.95;;;;;;;16.21;55.17;102278.20;1749273;82;21149;-49
2021/04/25 07:00:48;;;;;;;8.30;4.95;;;;;;;16.15;55.26;102279.20;1735988;82;21184;-49
2021/04/25 07:03:16;;;;;;;6.85;4.28;;;;;;;16.11;55.01;102278.85;1749832;81;21596;-49
2021/04/25 07:05:45;;;;;;;5.35;3.95;;;;;;;16.09;55.14;102280.61;1790098;79;21306;-49
2021/04/25 07:08:13;;;;;;;4.35;3.67;;;;;;;16.07;55.03;102277.63;1805641;78;21534;-49
2021/04/25 07:10:43;;;;;;;8.03;4.33;;;;;;;16.05;54.44;102278.94;1768853;80;21286;-50
2021/04/25 07:13:10;;;;;;;6.35;4.30;;;;;;;16.05;54.07;102279.41;1731583;82;21208;-49
2021/04/25 07:15:38;;;;;;;5.08;3.98;;;;;;;16.02;53.88;102280.33;1817125;79;21145;-49
2021/04/25 07:18:06;;;;;;;6.05;4.40;;;;;;;16.01;53.66;102280.38;1782540;80;21281;-49
2021/04/25 07:20:36;;;;;;;4.53;4.03;;;;;;;15.98;53.45;102286.55;1787669;79;21699;-49
2021/04/25 07:23:04;;;;;;;6.08;3.67;;;;;;;15.95;53.02;102284.44;1816674;79;21136;-49
2021/04/25 07:25:32;;;;;;;5.47;3.83;;;;;;;15.89;53.22;102278.84;1807790;79;21219;-49
2021/04/25 07:28:01;;;;;;;6.95;3.98;;;;;;;15.86;53.28;102283.29;1777912;80;21189;-49
2021/04/25 07:30:29;;;;;;;7.42;3.62;;;;;;;15.83;53.06;102280.27;1753817;82;21132;-48
2021/04/25 07:32:57;;;;;;;5.72;3.52;;;;;;;15.81;53.13;102282.50;1733511;80;21164;-49
2021/04/25 07:35:25;;;;;;;5.80;3.87;;;;;;;15.82;53.17;102279.00;1754068;82;21149;-49
2021/04/25 07:37:53;;;;;;;6.30;4.12;;;;;;;15.82;53.22;102282.93;1737650;82;21157;-49
2021/04/25 07:40:21;;;;;;;5.62;3.58;;;;;;;15.84;53.35;102284.64;1745617;82;21204;-49
2021/04/25 07:42:49;;;;;;;4.58;4.15;;;;;;;15.88;53.43;102286.75;1744796;82;21151;-49
2021/04/25 07:45:18;;;;;;;4.55;3.72;;;;;;;15.88;53.23;102288.94;1734434;80;21164;-49
2021/04/25 07:47:46;;;;;;;5.22;3.25;;;;;;;15.89;53.02;102289.34;1746455;82;21168;-49
2021/04/25 07:50:15;;;;;;;6.80;3.60;;;;;;;15.90;52.49;102288.45;1737663;82;21172;-49
2021/04/25 07:52:43;;;;;;;5.50;4.33;;;;;;;15.92;52.55;102285.80;1750967;82;21208;-49
2021/04/25 07:55:12;;;;;;;5.12;3.62;;;;;;;15.92;52.69;102282.73;1765152;81;21286;-49
2021/04/25 07:57:40;;;;;;;4.75;3.42;;;;;;;15.95;52.88;102282.66;1721077;81;21551;-48
2021/04/25 08:00:12;;;;;;;6.65;4.40;;;;;;;15.99;52.90;102276.44;1720265;83;21198;-48
2021/04/25 08:02:39;;;;;;;5.72;3.85;;;;;;;16.04;52.68;102275.05;1720041;83;21583;-49
2021/04/25 08:05:09;;;;;;;5.72;3.75;;;;;;;16.08;52.19;102272.33;1720428;83;21365;-49
2021/04/25 08:07:37;;;;;;;4.25;3.62;;;;;;;16.11;52.45;102268.34;1720002;83;21583;-48
2021/04/25 08:10:08;;;;;;;6.17;4.17;;;;;;;16.12;51.81;102266.12;1720936;83;21329;-49
2021/04/25 08:12:36;;;;;;;6.17;4.12;;;;;;;16.13;51.67;102271.80;1733704;82;21225;-49
2021/04/25 08:15:06;;;;;;;4.87;3.33;;;;;;;16.16;51.91;102271.72;1742874;82;21176;-49
2021/04/25 08:17:33;;;;;;;10.18;3.67;;;;;;;16.17;51.87;102265.59;1743874;82;21573;-49
2021/04/25 08:20:04;;;;;;;4.70;3.30;;;;;;;16.20;51.87;102261.56;1720552;81;21150;-48
2021/04/25 08:22:32;;;;;;;7.58;4.35;;;;;;;16.24;52.23;102263.23;1721586;83;21134;-49
2021/04/25 08:25:01;;;;;;;5.95;3.95;;;;;;;16.32;52.01;102258.28;1721170;83;21150;-48
2021/04/25 08:27:29;;;;;;;4.80;4.30;;;;;;;16.41;51.64;102256.74;1718101;83;21174;-49
2021/04/25 08:29:57;;;;;;;4.30;3.70;;;;;;;16.50;51.72;102256.59;1725389;83;21135;-49
2021/04/25 08:32:25;;;;;;;7.85;3.70;;;;;;;16.59;51.56;102252.45;1738288;82;21185;-49
2021/04/25 08:34:53;;;;;;;6.30;3.83;;;;;;;16.66;51.35;102247.45;1720479;81;21135;-49
2021/04/25 08:37:21;;;;;;;4.10;3.70;;;;;;;16.72;51.09;102244.23;1718229;83;21619;-50
2021/04/25 08:39:49;;;;;;;4.40;3.12;;;;;;;16.79;50.96;102236.63;1719742;83;21155;-49
2021/04/25 08:42:17;;;;;;;6.25;3.17;;;;;;;16.87;51.01;102229.42;1720521;83;21163;-49
2021/04/25 08:44:45;;;;;;;7.20;3.60;;;;;;;16.93;50.55;102229.27;1718166;83;21151;-49
2021/04/25 08:47:14;;;;;;;7.40;3.50;;;;;;;16.99;50.43;102231.74;1734189;82;21157;-49
2021/04/25 08:49:43;;;;;;;10.65;3.20;;;;;;;17.05;50.63;102220.20;1720053;81;21281;-49
2021/04/25 08:52:11;;;;;;;4.10;3.35;;;;;;;17.13;50.37;102222.17;1706095;83;21163;-48
2021/04/25 08:54:39;;;;;;;4.92;3.22;;;;;;;17.19;50.01;102219.39;1733321;82;21154;-48
2021/04/25 08:57:08;;;;;;;5.67;3.22;;;;;;;17.28;49.80;102219.16;1787532;79;21191;-48
2021/04/25 08:59:36;;;;;;;5.97;3.77;;;;;;;17.36;49.72;102215.88;1806583;79;21132;-48
2021/04/25 09:02:04;;;;;;;7.87;3.30;;;;;;;17.43;49.46;102217.45;1810057;79;21621;-48
2021/04/25 09:04:33;;;;;;;5.50;3.52;;;;;;;17.49;49.41;102216.41;1800371;79;21584;-48
2021/04/25 09:07:09;;;;;;;6.55;3.67;;;;;;;17.52;49.13;102217.22;1812419;79;21132;-49
2021/04/25 09:09:50;;;;;;;4.10;3.70;;;;;;;17.56;48.90;102221.49;1809932;79;21108;-48
2021/04/25 09:12:40;;;;;;;5.62;3.70;;;;;;;17.59;49.01;102212.20;1724980;83;21149;-49
2021/04/25 09:15:18;;;;;;;5.55;3.50;;;;;;;17.62;49.20;102207.32;1726872;83;21175;-48
2021/04/25 09:17:59;;;;;;;4.05;3.30;;;;;;;17.65;49.01;102208.09;1727110;83;21310;-48
2021/04/25 09:20:46;;;;;;;6.03;3.80;;;;;;;17.70;48.95;102203.54;1726529;83;21373;-49
2021/04/25 09:23:29;;;;;;;4.75;3.27;;;;;;;17.77;48.68;102197.20;1810453;79;22824;-49
2021/04/25 09:26:05;;;;;;;4.87;3.55;;;;;;;17.77;48.60;102195.89;1777136;80;21140;-48
2021/04/25 09:28:36;;;;;;;6.33;3.12;;;;;;;17.84;48.68;102185.60;1701179;84;21644;-48
2021/04/25 09:31:15;;;;;;;4.37;3.02;;;;;;;17.95;48.91;102189.69;1702079;84;21692;-48
2021/04/25 09:33:49;;;;;;;7.03;3.10;;;;;;;18.08;48.97;102186.63;1706985;84;21228;-48
2021/04/25 09:36:21;;;;;;;6.20;2.98;;;;;;;18.25;48.71;102186.13;1699890;84;21165;-47
2021/04/25 09:38:53;;;;;;;5.10;3.45;;;;;;;18.40;48.15;102185.66;1701982;84;21164;-48
2021/04/25 09:41:31;;;;;;;7.12;3.42;;;;;;;18.58;47.85;102164.01;1807010;79;22595;-48
2021/04/25 09:44:00;;;;;;;7.95;3.60;;;;;;;18.67;47.72;102169.83;1766521;80;21207;-48
2021/04/25 09:46:53;;;;;;;4.45;3.60;;;;;;;18.79;47.22;102155.40;1780063;80;21140;-48
2021/04/25 09:49:45;;;;;;;6.78;4.03;;;;;;;18.87;47.13;102158.64;1778442;80;21337;-48
2021/04/25 09:52:27;;;;;;;9.33;3.83;;;;;;;18.93;46.96;102158.42;1783537;80;21163;-48
2021/04/25 09:55:22;;;;;;;7.35;3.95;;;;;;;18.98;46.61;102151.68;1780112;80;21243;-48
2021/04/25 09:57:57;;;;;;;6.75;3.60;;;;;;;18.98;46.51;102151.20;1780585;80;21145;-48
2021/04/25 10:00:39;;;;;;;4.37;3.98;;;;;;;18.97;46.57;102155.22;1767362;80;21197;-48
2021/04/25 10:03:10;;;;;;;7.10;3.83;;;;;;;18.94;46.51;102148.27;1772350;80;21258;-48
2021/04/25 10:05:42;;;;;;;3.55;3.20;;;;;;;18.92;46.33;102145.30;1774431;80;21748;-48
2021/04/25 10:08:10;;;;;;;6.92;3.70;;;;;;;18.86;46.08;102146.34;1772517;80;21588;-48
2021/04/25 10:10:49;;;;;;;5.92;3.67;;;;;;;18.84;46.13;102134.99;1770018;79;23139;-49
2021/04/25 10:13:16;;;;;;;;;;;;;;;18.74;46.51;102141.49;1733819;82;21166;-47
2021/04/25 10:15:45;;;;;;;4.65;3.30;;;;;;;18.69;46.35;102134.20;1738047;82;20132;-47
2021/04/25 10:18:13;;;;;;;3.90;3.22;;;;;;;18.65;46.23;102127.28;1739477;82;21509;-48
2021/04/25 10:20:41;;;;;;;6.17;3.60;;;;;;;18.61;46.25;102126.53;1741303;82;21172;-47
2021/04/25 10:23:09;;;;;;;4.42;3.92;;;;;;;18.57;46.72;102123.59;1740530;82;21144;-48
2021/04/25 10:25:38;;;;;;;7.15;4.20;;;;;;;18.55;46.72;102117.96;1738500;82;21160;-48
2021/04/25 10:28:28;;;;;;;6.58;3.98;;;;;;;18.53;46.72;102119.34;1737427;82;21152;-50
2021/04/25 10:31:01;;;;;;;4.53;3.30;;;;;;;18.52;47.00;102118.08;1666285;85;21675;-48
2021/04/25 10:34:00;;;;;;;3.90;3.40;;;;;;;18.52;47.10;102119.40;1666653;85;21191;-48
2021/04/25 10:36:54;;;;;;;4.00;3.60;;;;;;;18.50;47.23;102115.95;1665461;85;21184;-48
2021/04/25 10:39:46;;;;;;;5.65;3.50;;;;;;;18.53;47.38;102113.20;1664719;85;21171;-48
2021/04/25 10:42:25;;;;;;;5.78;3.35;;;;;;;18.53;47.38;102110.56;1660221;85;21192;-48
2021/04/25 10:45:05;;;;;;;4.97;3.37;;;;;;;18.55;47.23;102114.01;1666771;85;21212;-48
2021/04/25 10:47:38;;;;;;;4.67;3.37;;;;;;;18.55;47.09;102107.41;1665230;85;21230;-49
2021/04/25 10:50:26;;;;;;;5.00;3.50;;;;;;;18.57;47.12;102114.81;1669770;85;21148;-48
2021/04/25 10:52:54;;;;;;;6.15;3.40;;;;;;;18.57;47.14;102110.86;1669653;85;21196;-48
2021/04/25 10:55:31;;;;;;;4.72;3.17;;;;;;;18.63;47.25;102110.66;1810030;79;22924;-49
2021/04/25 10:58:07;;;;;;;7.35;3.60;;;;;;;18.58;47.01;102103.38;1783873;80;21168;-48
2021/04/25 11:00:38;;;;;;;5.62;3.35;;;;;;;18.58;46.77;102104.70;1786925;80;21148;-48
2021/04/25 11:03:16;;;;;;;4.00;3.37;;;;;;;18.57;46.69;102105.14;1722459;83;21170;-48
2021/04/25 11:05:48;;;;;;;3.12;2.83;;;;;;;18.58;46.58;102103.38;1711672;83;21155;-48
2021/04/25 11:08:33;;;;;;;5.40;3.67;;;;;;;18.59;46.58;102099.81;1743083;82;21311;-49
2021/04/25 11:11:09;;;;;;;6.17;3.47;;;;;;;18.61;46.59;102097.98;1738736;82;21187;-48
2021/04/25 11:13:46;;;;;;;5.00;3.20;;;;;;;18.61;46.55;102092.70;1742347;82;21177;-49
2021/04/25 11:16:20;;;;;;;4.53;3.45;;;;;;;18.61;46.43;102094.03;1737862;82;21729;-48
2021/04/25 11:19:06;;;;;;;5.28;3.47;;;;;;;18.61;46.56;102088.75;1742534;82;21165;-49
2021/04/25 11:21:50;;;;;;;8.20;3.42;;;;;;;18.58;46.61;102088.42;1738388;82;21573;-48
2021/04/25 11:24:29;;;;;;;6.12;3.22;;;;;;;18.59;46.79;102086.63;1740431;82;21110;-48
2021/04/25 11:26:59;;;;;;;5.03;3.35;;;;;;;18.62;46.75;102095.31;1727194;83;21624;-48
2021/04/25 11:29:48;;;;;;;7.55;3.42;;;;;;;18.64;46.90;102095.26;1730536;83;21180;-48
2021/04/25 11:32:28;;;;;;;6.83;3.98;;;;;;;18.65;46.92;102095.65;1714870;83;21162;-48
2021/04/25 11:35:05;;;;;;;5.35;3.58;;;;;;;18.67;46.73;102092.50;1756815;81;21162;-48
2021/04/25 11:37:32;;;;;;;4.70;2.92;;;;;;;18.66;46.98;102085.08;1726640;83;21662;-48
2021/04/25 11:40:04;;;;;;;6.97;3.47;;;;;;;18.68;47.17;102081.06;1737545;81;21162;-48